createdAt,value
2023-02-22T00:03:39.342Z,12.24
2023-02-22T00:08:38.710Z,12.19
2023-02-22T00:13:38.170Z,11.74
2023-02-22T00:18:37.919Z,11.95
2023-02-22T00:23:41.115Z,11.72
2023-02-22T00:28:40.097Z,11.84
2023-02-22T00:33:40.420Z,11.95
2023-02-22T00:38:42.234Z,11.95
2023-02-22T00:43:41.552Z,11.72
2023-02-22T00:48:40.462Z,11.75
2023-02-22T00:53:40.708Z,11.72
2023-02-22T00:58:39.714Z,11.71
2023-02-22T01:03:41.389Z,11.65
2023-02-22T01:08:45.539Z,11.76
2023-02-22T01:13:45.658Z,11.49
2023-02-22T01:18:44.601Z,11.53
2023-02-22T01:23:45.778Z,11.51
2023-02-22T01:28:44.525Z,11.38
2023-02-22T01:33:43.376Z,11.54
2023-02-22T01:38:42.214Z,11.38
2023-02-22T01:43:42.273Z,11.28
2023-02-22T01:48:44.526Z,11.42
2023-02-22T01:53:47.808Z,11.31
2023-02-22T01:58:48.549Z,11.36
2023-02-22T02:03:50.667Z,11.37
2023-02-22T02:09:00.129Z,11.24
2023-02-22T02:14:00.459Z,11.42
2023-02-22T02:18:59.595Z,11.08
2023-02-22T02:24:23.552Z,11.13
2023-02-22T02:30:02.906Z,10.98
2023-02-22T02:35:08.832Z,11.15
2023-02-22T02:40:17.949Z,11.27
2023-02-22T02:45:23.396Z,11.26
2023-02-22T02:50:28.602Z,11.28
2023-02-22T02:55:28.530Z,11.19
2023-02-22T03:00:39.371Z,11.29
2023-02-22T03:06:05.373Z,11.43
2023-02-22T03:11:15.434Z,11.54
2023-02-22T03:16:22.763Z,11.17
2023-02-22T03:21:31.103Z,11.20
2023-02-22T03:26:36.482Z,11.01
2023-02-22T03:31:41.597Z,10.98
2023-02-22T03:36:46.634Z,11.04
2023-02-22T03:41:51.567Z,10.78
2023-02-22T03:47:00.685Z,10.78
2023-02-22T03:52:02.311Z,10.79
2023-02-22T03:57:09.458Z,10.84
2023-02-22T04:02:11.013Z,10.82
2023-02-22T04:07:11.282Z,10.80
2023-02-22T04:12:10.752Z,10.76
2023-02-22T04:17:24.513Z,10.66
2023-02-22T04:22:24.891Z,10.71
2023-02-22T04:27:24.979Z,10.91
2023-02-22T04:32:26.645Z,10.69
2023-02-22T04:37:27.496Z,10.62
2023-02-22T04:42:27.051Z,10.69
2023-02-22T04:47:27.289Z,10.58
2023-02-22T04:52:28.623Z,10.70
2023-02-22T04:57:28.296Z,10.48
2023-02-22T05:02:27.905Z,10.61
2023-02-22T05:07:28.214Z,10.64
2023-02-22T05:12:28.652Z,10.44
2023-02-22T05:17:27.558Z,10.37
2023-02-22T05:22:27.944Z,10.37
2023-02-22T05:27:27.061Z,10.67
2023-02-22T05:32:25.870Z,10.66
2023-02-22T05:37:24.844Z,10.56
2023-02-22T05:42:25.068Z,10.56
2023-02-22T05:47:23.748Z,10.41
2023-02-22T05:52:22.584Z,10.70
2023-02-22T05:57:21.911Z,10.81
2023-02-22T06:02:22.112Z,10.84
2023-02-22T06:07:20.836Z,10.66
2023-02-22T06:12:19.710Z,10.59
2023-02-22T06:17:20.559Z,10.84
2023-02-22T06:22:21.343Z,10.96
2023-02-22T06:27:20.128Z,11.01
2023-02-22T06:32:19.004Z,10.65
2023-02-22T06:37:17.938Z,10.73
2023-02-22T06:42:18.186Z,10.63
2023-02-22T06:47:17.262Z,10.79
2023-02-22T06:52:15.978Z,10.90
2023-02-22T06:57:14.687Z,10.93
2023-02-22T07:02:21.351Z,11.00
2023-02-22T07:07:20.064Z,11.15
2023-02-22T07:12:18.925Z,11.40
2023-02-22T07:17:19.075Z,11.38
2023-02-22T07:22:17.910Z,11.43
2023-02-22T07:27:17.779Z,11.26
2023-02-22T07:32:16.665Z,11.36
2023-02-22T07:37:17.618Z,11.43
2023-02-22T07:42:16.747Z,11.34
2023-02-22T07:47:17.908Z,11.47
2023-02-22T07:52:18.125Z,11.60
2023-02-22T07:57:17.039Z,11.80
2023-02-22T08:02:17.125Z,12.00
2023-02-22T08:07:17.377Z,12.27
2023-02-22T08:12:16.627Z,12.56
2023-02-22T08:17:15.402Z,12.59
2023-02-22T08:22:14.234Z,12.85
2023-02-22T08:27:14.373Z,12.93
2023-02-22T08:32:13.246Z,12.74
2023-02-22T08:37:12.218Z,12.84
2023-02-22T08:42:11.473Z,12.93
2023-02-22T08:47:11.637Z,13.04
2023-02-22T08:52:10.961Z,13.29
2023-02-22T08:57:09.675Z,13.60
2023-02-22T09:02:16.944Z,14.14
2023-02-22T09:07:16.041Z,14.46
2023-02-22T09:12:15.922Z,14.98
2023-02-22T09:17:19.008Z,15.49
2023-02-22T09:22:26.241Z,15.56
2023-02-22T09:27:28.323Z,16.39
2023-02-22T09:32:28.851Z,16.43
2023-02-22T09:37:27.750Z,17.27
2023-02-22T09:42:33.756Z,17.09
2023-02-22T09:47:41.502Z,17.50
2023-02-22T09:52:47.611Z,18.35
2023-02-22T09:57:47.321Z,19.34
2023-02-22T10:02:53.820Z,19.32
2023-02-22T10:07:56.541Z,19.63
2023-02-22T10:13:02.700Z,20.60
2023-02-22T10:18:24.415Z,21.39
2023-02-22T10:23:31.996Z,21.41
2023-02-22T10:28:36.134Z,21.64
2023-02-22T10:33:47.713Z,21.98
2023-02-22T10:38:53.755Z,23.19
2023-02-22T10:43:52.736Z,22.83
2023-02-22T10:48:56.166Z,23.11
2023-02-22T10:54:00.881Z,23.00
2023-02-22T10:59:06.509Z,23.63
2023-02-22T11:04:13.435Z,24.21
2023-02-22T11:09:14.689Z,24.34
2023-02-22T11:14:16.356Z,24.39
2023-02-22T11:19:21.143Z,26.34
2023-02-22T11:24:24.352Z,26.43
2023-02-22T11:29:27.268Z,27.54
2023-02-22T11:34:31.717Z,27.57
2023-02-22T11:39:35.698Z,27.67
2023-02-22T11:44:34.478Z,27.43
2023-02-22T11:49:38.366Z,27.22
2023-02-22T11:55:10.811Z,27.09
2023-02-22T12:00:24.792Z,27.73
2023-02-22T12:05:38.045Z,27.59
2023-02-22T12:10:49.765Z,28.73
2023-02-22T12:15:57.559Z,28.81
2023-02-22T12:21:01.674Z,28.79
2023-02-22T12:26:05.432Z,27.47
2023-02-22T12:31:19.856Z,27.90
2023-02-22T12:36:24.088Z,27.22
2023-02-22T12:41:29.879Z,27.06
2023-02-22T12:46:34.652Z,27.54
2023-02-22T12:51:42.404Z,27.86
2023-02-22T12:56:46.013Z,27.59
2023-02-22T13:01:51.613Z,28.73
2023-02-22T13:07:04.731Z,27.30
2023-02-22T13:12:10.389Z,28.21
2023-02-22T13:17:21.113Z,29.02
2023-02-22T13:22:24.609Z,29.34
2023-02-22T13:27:29.511Z,29.90
2023-02-22T13:32:39.337Z,29.03
2023-02-22T13:37:52.959Z,27.94
2023-02-22T13:43:20.776Z,27.77
2023-02-22T13:49:06.761Z,28.20
2023-02-22T13:54:10.639Z,28.75
2023-02-22T13:59:25.469Z,29.32
2023-02-22T14:04:40.673Z,28.25
2023-02-22T14:09:48.401Z,28.52
2023-02-22T14:15:29.229Z,28.78
2023-02-22T14:20:35.257Z,28.37
2023-02-22T14:25:39.178Z,27.57
2023-02-22T14:30:40.293Z,26.18
2023-02-22T14:35:49.986Z,25.81
2023-02-22T14:40:52.878Z,26.61
2023-02-22T14:45:55.033Z,26.78
2023-02-22T14:50:58.647Z,27.33
2023-02-22T14:56:03.610Z,27.09
2023-02-22T15:01:24.321Z,25.44
2023-02-22T15:06:31.452Z,25.57
2023-02-22T15:11:33.377Z,25.67
2023-02-22T15:16:35.535Z,25.71
2023-02-22T15:21:35.530Z,25.67
2023-02-22T15:26:44.228Z,25.60
2023-02-22T15:31:48.247Z,25.17
2023-02-22T15:36:54.506Z,25.03
2023-02-22T15:42:05.231Z,24.71
2023-02-22T15:47:04.920Z,24.06
2023-02-22T15:52:07.963Z,23.73
2023-02-22T15:57:08.204Z,23.30
2023-02-22T16:02:07.190Z,22.46
2023-02-22T16:07:17.332Z,21.85
2023-02-22T16:12:29.252Z,21.21
2023-02-22T16:17:36.365Z,20.68
2023-02-22T16:22:37.038Z,19.80
2023-02-22T16:27:47.862Z,19.44
2023-02-22T16:32:47.391Z,18.92
2023-02-22T16:37:47.645Z,18.59
2023-02-22T16:42:47.765Z,18.17
2023-02-22T16:47:46.930Z,17.65
2023-02-22T16:52:45.990Z,17.38
2023-02-22T16:57:45.740Z,17.03
2023-02-22T17:02:46.673Z,16.43
2023-02-22T17:07:46.350Z,16.45
2023-02-22T17:12:47.585Z,16.41
2023-02-22T17:17:47.784Z,16.18
2023-02-22T17:22:47.860Z,16.11
2023-02-22T17:27:51.128Z,15.93
2023-02-22T17:32:52.636Z,15.75
2023-02-22T17:37:52.648Z,15.64
2023-02-22T17:42:55.306Z,15.67
2023-02-22T17:47:58.316Z,15.25
2023-02-22T17:52:56.855Z,15.02
2023-02-22T17:57:58.767Z,15.06
2023-02-22T18:02:58.986Z,14.71
2023-02-22T18:07:59.413Z,14.72
2023-02-22T18:13:02.011Z,14.76
2023-02-22T18:18:06.499Z,14.72
2023-02-22T18:23:08.031Z,14.63
2023-02-22T18:28:08.266Z,14.57
2023-02-22T18:33:11.297Z,14.42
2023-02-22T18:38:14.683Z,14.29
2023-02-22T18:43:13.633Z,13.93
2023-02-22T18:48:20.482Z,13.75
2023-02-22T18:53:19.374Z,13.85
2023-02-22T18:58:18.136Z,13.54
2023-02-22T19:03:16.935Z,13.47
2023-02-22T19:08:17.176Z,13.56
2023-02-22T19:13:16.812Z,13.55
2023-02-22T19:18:15.560Z,13.59
2023-02-22T19:23:14.377Z,13.66
2023-02-22T19:28:15.667Z,13.68
2023-02-22T19:33:14.435Z,13.66
2023-02-22T19:38:13.442Z,13.55
2023-02-22T19:43:14.473Z,13.56
2023-02-22T19:48:15.627Z,13.58
2023-02-22T19:53:14.593Z,13.61
2023-02-22T19:58:15.424Z,13.57
2023-02-22T20:03:24.996Z,13.41
2023-02-22T20:08:26.408Z,13.13
2023-02-22T20:13:26.399Z,12.87
2023-02-22T20:18:27.350Z,13.05
2023-02-22T20:23:26.299Z,13.18
2023-02-22T20:28:25.521Z,13.22
2023-02-22T20:33:24.996Z,13.30
2023-02-22T20:38:25.232Z,13.24
2023-02-22T20:43:24.260Z,13.19
2023-02-22T20:48:26.242Z,13.28
2023-02-22T20:53:26.509Z,13.18
2023-02-22T20:58:30.345Z,13.11
2023-02-22T21:03:29.132Z,13.05
2023-02-22T21:08:29.295Z,13.03
2023-02-22T21:13:28.668Z,12.81
2023-02-22T21:18:33.217Z,12.83
2023-02-22T21:23:33.523Z,12.76
2023-02-22T21:28:50.394Z,12.76
2023-02-22T21:34:01.824Z,12.65
2023-02-22T21:39:08.552Z,12.68
2023-02-22T21:44:22.829Z,12.79
2023-02-22T21:49:23.843Z,12.81
2023-02-22T21:54:24.630Z,12.84
2023-02-22T21:59:24.085Z,12.86
2023-02-22T22:04:27.872Z,12.88
2023-02-22T22:09:33.273Z,12.89
2023-02-22T22:14:32.392Z,12.73
2023-02-22T22:19:35.003Z,12.71
2023-02-22T22:24:35.488Z,12.44
2023-02-22T22:29:35.283Z,12.37
2023-02-22T22:34:35.079Z,12.22
2023-02-22T22:39:35.284Z,12.21
2023-02-22T22:44:41.997Z,12.13
2023-02-22T22:49:42.667Z,12.04
2023-02-22T22:54:45.789Z,12.06
2023-02-22T22:59:44.552Z,12.01
2023-02-22T23:04:43.458Z,11.92
2023-02-22T23:09:45.080Z,11.88
2023-02-22T23:14:47.146Z,11.61
2023-02-22T23:19:46.531Z,11.64
2023-02-22T23:24:46.675Z,11.63
2023-02-22T23:29:46.845Z,11.56
2023-02-22T23:34:49.635Z,11.37
2023-02-22T23:39:51.042Z,11.24
2023-02-22T23:44:53.066Z,11.27
2023-02-22T23:49:51.944Z,11.26
2023-02-22T23:54:53.954Z,11.25
2023-02-22T23:59:53.007Z,11.08
